Rezultati u proteklih 7 dana

datum vreme utakmica rezultat
04.12.2016 14:30 Bornmaut - Liverpul 4:3 (0:2)
04.12.2016 17:00 Everton - Mančester Junajted 1:1 (0:1)
datum vreme utakmica rezultat
04.12.2016 12:30 Milan - Krotone 2:1 (1:1)
04.12.2016 15:00 Sasuolo - Empoli 3:0 (2:0)
04.12.2016 15:00 Peskara - Kaljari 1:1 (0:1)
04.12.2016 15:00 Lacio - Roma 0:2 (0:0)
04.12.2016 15:00 Sampdorija - Torino 2:0 (0:0)
04.12.2016 20:45 Fiorentina - Palermo 2:1 (1:0)
datum vreme utakmica rezultat
04.12.2016 12:00 Betis - Selta 3:3 (1:1)
04.12.2016 16:15 Atletik Bilbao - Eibar 3:1 (1:0)
04.12.2016 18:30 Hihon - Osasuna 3:1 (1:0)
04.12.2016 18:30 Alaveš - Las Palmas 1:1 (1:0)
04.12.2016 20:45 Valensija - Malaga 2:2 (2:1)
datum vreme utakmica rezultat
04.12.2016 15:30 Darmštad - Hamburg 0:2 (0:1)
04.12.2016 17:30 Augsburg - Ajntraht 1:1 (1:1)
datum vreme utakmica rezultat
04.12.2016 15:00 Ren - Sent Etjen 2:0 (0:0)
04.12.2016 17:00 Marsej - Nansi 3:0 (0:0)
04.12.2016 20:45 Nica - Tuluz 3:0 (2:0)
datum vreme utakmica rezultat
04.12.2016 13:00 Curzon Ashton FC - Vimbldon 3:4 (2:0)
04.12.2016 15:00 Milvol - Brejntri 5:2 (3:2)
04.12.2016 15:00 Bolton - Šefild Junajted 3:2 (1:0)
04.12.2016 15:00 Kembridž - Koventri 4:0 (3:0)
04.12.2016 15:00 Nots Kaunti - Piterboro 2:2 (1:2)
04.12.2016 15:00 Istli - Halifaks 3:3 (1:0)
04.12.2016 15:00 Bristol Rovers - Barou 1:2 (1:1)
04.12.2016 15:00 Voking - Akrington 0:3 (0:2)
04.12.2016 16:00 Port Vejl - Hartlpul 4:0 (3:0)
datum vreme utakmica rezultat
04.12.2016 15:00 Verona - Perudja 2:2 (2:1)
datum vreme utakmica rezultat
04.12.2016 12:00 Đirona - Levante 2:1 (1:0)
04.12.2016 12:00 Valjekano - Alkorkon 2:0 (0:0)
04.12.2016 16:00 Ovijedo - Nastik 1:0 (1:0)
04.12.2016 18:00 Tenerife - Huesca 1:1 (1:0)
04.12.2016 18:00 Majorka - Valjadolid 0:3 (0:0)
04.12.2016 20:00 Reus Deportiu - Kordoba 1:2 (0:1)
datum vreme utakmica rezultat
04.12.2016 13:30 Erzgebirge Aue - Štutgart 0:4 (0:2)
04.12.2016 13:30 Wurzburger - Fortuna Dizeldorf 0:0 (0:0)
04.12.2016 13:30 Bilefeld - Bohum 1:0 (1:0)
datum vreme utakmica rezultat
04.12.2016 11:30 Alanyaspor - Konija 2:3 (0:2)
04.12.2016 14:00 Osmanlispor FK - Karabukspor 2:1 (2:1)
04.12.2016 14:00 Gacijantep - Akhisar Beledije 1:2 (1:0)
04.12.2016 17:00 Kasimpasa - Galatasaraj 1:2 (0:1)
04.12.2016 17:00 Adana - Genclerbirligi 0:2 (0:1)
datum vreme utakmica rezultat
04.12.2016 14:00 Olimpijakos - Levadiakos 4:0 (0:0)
04.12.2016 16:15 Ksanti - Asteras Tripolis 3:1 (3:0)
04.12.2016 18:30 Panatinaikos - PAOK 1:0 (0:0)
datum vreme utakmica rezultat
04.12.2016 12:30 Den Hag - Utreht 0:2 (0:1)
04.12.2016 14:30 Viljem II - Tvente 0:0 (0:0)
04.12.2016 14:30 Fejenord - Sparta 6:1 (2:0)
04.12.2016 16:45 Ajaks - Groningen 2:0 (1:0)
datum vreme utakmica rezultat
04.12.2016 14:30 Kortrijk - Anderleht 1:3 (0:1)
04.12.2016 20:00 Genk - Lokeren 1:2 (1:0)
datum vreme utakmica rezultat
04.12.2016 17:00 Moreirense - Nacional 3:1 (1:0)
04.12.2016 17:00 Feirense - Aruka 0:2 (0:0)
04.12.2016 19:00 Estoril - Belenenses 1:1 (0:0)
04.12.2016 21:15 Vitoria Gimaraeš - GD Čaves 1:1 (1:0)
datum vreme utakmica rezultat
04.12.2016 13:00 FC Voluntari - Astra Đurđu 1:2 (0:0)
04.12.2016 17:00 Targu Mures - Botosani 2:0 (0:0)
04.12.2016 19:30 Steaua - Panduri 3:1 (1:1)
datum vreme utakmica rezultat
04.12.2016 14:00 Farum - Odenze 0:0 (0:0)
04.12.2016 16:00 Esbjerg - Brondbi 1:1 (0:0)
04.12.2016 18:00 Midtjiland - Arhus 0:1 (0:0)
datum vreme utakmica rezultat
04.12.2016 13:30 FC Fleury 91 - Lion Dušer 3:0 (2:0)
04.12.2016 13:45 Lens - Vaskual 2:0 (1:0)
04.12.2016 14:30 Blagnac - Red Star 1:0 (1:0)
04.12.2016 15:00 Locmine - Avr 0:4 (0:1)
datum vreme utakmica rezultat
04.12.2016 13:45 Lozana - Grashopers 1:2 (0:2)
04.12.2016 13:45 Lugano - Tun 1:1 (0:0)
04.12.2016 16:00 Sent Galen - Sion 2:1 (0:1)
datum vreme utakmica rezultat
04.12.2016 15:00 Arau - Volen 1:0 (1:0)
04.12.2016 15:00 Safhausen - Kiaso 1:2 (1:1)
datum vreme utakmica rezultat
04.12.2016 15:00 Slaven - Hajduk 2:1 (1:1)
04.12.2016 17:00 RNK Split - Osijek 1:1 (1:0)
datum vreme utakmica rezultat
04.12.2016 15:30 Krakovia - Gornjik Lečna 1:1 (0:0)
04.12.2016 18:00 Jagielonija Bjalistok - Leh 2:1 (1:1)
datum vreme utakmica rezultat
04.12.2016 16:00 Šahtjor - Stal Kamianske 2:0 (1:0)
04.12.2016 18:30 Zirka - PFC Oleksandrija 1:1 (0:1)
datum vreme utakmica rezultat
04.12.2016 14:00 Lokomotiva Moskva - Terek Grozni 2:0 (1:0)
datum vreme utakmica rezultat
04.12.2016 16:30 Volfsberger - Šturm 0:4 (0:2)
datum vreme utakmica rezultat
04.12.2016 15:20 Slovan - Spartak Trnava 0:1 (0:1)
datum vreme utakmica rezultat
04.12.2016 14:00 Krsko - Domžale 0:0 (0:0)
04.12.2016 16:55 Radomlje - Olimpija 1:4 (0:2)
datum vreme utakmica rezultat
04.12.2016 16:00 Temuko - Univerzidad Čile 0:3 (0:2)
04.12.2016 21:00 Munisipal Ikuike - Univerzidad Katolika 2:6 (2:2)
04.12.2016 21:00 Uviverzidad Konsepsion - O Higins 3:1 (1:0)
04.12.2016 21:00 Union Espanjola - Antofagasta 2:1 (1:1)
04.12.2016 00:00 Kolo Kolo - Everton CD 4:2 (3:2)
04.12.2016 00:00 Odaks Italiano - San luis 1:2 (0:2)
datum vreme utakmica rezultat
04.12.2016 14:00 Beroe - Neftokimik 2:0 (2:0)
04.12.2016 16:30 CSKA Sofija - Pirin bl. 2:0 (1:0)
datum vreme utakmica rezultat
04.12.2016 13:00 Novi Pazar - Spartak Subotica 2:4 (2:1)
04.12.2016 13:00 FK Radnik Surdulica - Rad 1:0 (1:0)
04.12.2016 13:00 Radnicki Niš - Borac C. 3:3 (2:2)
04.12.2016 13:00 Voždovac - Crvena Zvezda 0:1 (0:0)
04.12.2016 13:00 FK Backa Palanka - Čukarički 3:1 (1:0)
04.12.2016 17:00 Vojvodina - Napredak 2:0 (1:0)
04.12.2016 18:00 Partizan - Javor 2:0 (1:0)
datum vreme utakmica rezultat
04.12.2016 16:00 Roselare - KVSK Lommel 2:1 (2:1)
datum vreme utakmica rezultat
04.12.2016 11:00 Umraniyespor - Samsun 1:0 (1:0)
04.12.2016 11:00 Boluspor - Balikesirspor 2:3 (0:1)
04.12.2016 14:00 Elazigspor - Denicli 0:3 (0:1)
04.12.2016 15:00 Giresunspor - Sivaspor 1:2 (0:1)
04.12.2016 16:30 Goztepe - Malatja 2:0 (1:0)
datum vreme utakmica rezultat
04.12.2016 12:15 Famalikao - Aveš 0:0 (0:0)
04.12.2016 16:00 Penafiel - Freamunde 0:2 (0:0)
04.12.2016 16:00 Akademika - Braga B 1:0 (0:0)
04.12.2016 16:00 Kovilja - Varzim 2:0 (1:0)
04.12.2016 16:00 Kova de Piedade - Žil Visente 1:0 (1:0)
04.12.2016 17:00 Olhanense - Leišoiš 3:1 (1:1)
04.12.2016 17:00 Uniao Madeira - Santa Klara 1:0 (1:0)
04.12.2016 18:00 Porto B - Benfika B 1:1 (1:0)
datum vreme utakmica rezultat
04.12.2016 15:00 Etnikos Ahnas - Aris Limasol 2:0 (0:0)
04.12.2016 15:00 Apolon Limasol - Anortoziz Famagusta 1:1 (1:0)
04.12.2016 17:00 Ermis Aradipou - AEL 0:1 (0:0)
datum vreme utakmica rezultat
04.12.2016 02:00 Tigres - Leon 2:1 (1:1)
datum vreme utakmica rezultat
04.12.2016 21:00 Estudijantes - Talleres 0:0 (0:0)
04.12.2016 21:00 Union de Santa Fe - Rozario 2:0 (0:0)
04.12.2016 22:00 Patronato Parana - Velez 0:0 (0:0)
04.12.2016 22:00 Boka Juniors - Rasing klub 4:2 (2:0)
04.12.2016 23:15 Belgrano - Temperley 0:0 (0:0)
04.12.2016 00:10 Independiente - River Plejt 1:0 (0:0)
datum vreme utakmica rezultat
04.12.2016 14:00 Lupo-Martini Wolfsburg - Ajntraht Norderšted 0:1 (0:0)
04.12.2016 14:00 Ejšede - Hamburger II 0:1 (0:1)
04.12.2016 14:00 Veiše Flensburg - Mepen 3:1 (0:1)
datum vreme utakmica rezultat
04.12.2016 14:00 Sportfrojnd Lot - Duisburg 0:2 (0:1)
04.12.2016 14:00 FSV Frankfurt - Magdeburg 0:1 (0:1)
datum vreme utakmica rezultat
04.12.2016 14:00 Vatenšajd - Ahen 3:1 (2:1)
04.12.2016 14:00 Bonner SC - Esen 1:2 (0:2)
datum vreme utakmica rezultat
04.12.2016 00:00 Zamora - Zulia FC 2:1 (1:1)